Stations météo

réclame
Mon MeteoGroup
La Hoya, Espagne (8205): Température de l'air & dewpoint: 12.12.2017 13:00:00 - 18.12.2017 13:00:00 (CET)La Hoya, Espagne (8205): Vitesse du vent & gusts: 12.12.2017 13:00:00 - 18.12.2017 13:00:00 (CET)La Hoya, Espagne (8205): Direction du vent: 12.12.2017 13:00:00 - 18.12.2017 13:00:00 (CET)La Hoya, Espagne (8205): visibility: 12.12.2017 13:00:00 - 18.12.2017 13:00:00 (CET)La Hoya, Espagne (8205): Quantités de précipitations: 12.12.2017 13:00:00 - 18.12.2017 13:00:00 (CET)
Date & Time tt [°C] td [°C] ff [km/h] ff [knt] fx [km/h] fx [knt] dd vv [km] rr [mm]
18.12.2017 13:00:00 - - - - - - - - -
18.12.2017 12:00:00 2,9 -9,0 21 11 37 20 E 20 0,0
18.12.2017 11:00:00 2,2 -6,0 20 11 36 20 ESE 20 0,0
18.12.2017 10:00:00 -0,3 -5,4 15 8 22 12 E 20 0,0
18.12.2017 09:00:00 0,5 -12,8 13 7 26 14 E 20 0,0
18.12.2017 08:00:00 1,0 -13,3 16 8 33 18 E 20 0,0
18.12.2017 07:00:00 -0,8 -11,7 17 9 33 18 E 20 -
18.12.2017 06:00:00 1,1 -11,2 17 9 31 17 E 20 0,0
18.12.2017 05:00:00 0,8 -11,2 21 11 38 21 ESE 20 0,0
18.12.2017 04:00:00 0,0 -11,2 23 12 44 24 ESE 20 0,0
18.12.2017 03:00:00 -1,7 -9,0 26 14 38 21 ESE 20 0,0
18.12.2017 02:00:00 -1,1 -11,7 18 10 38 21 E 20 0,0
18.12.2017 01:00:00 -2,2 -9,4 22 12 31 17 E 20 -
18.12.2017 00:00:00 -2,7 -7,8 11 6 23 12 E 20 0,0
17.12.2017 23:00:00 -0,5 -9,9 13 7 43 23 E 20 0,0
17.12.2017 22:00:00 -0,4 -13,9 18 10 40 22 E 20 0,0
17.12.2017 21:00:00 -2,9 -9,4 22 12 40 22 E 20 0,0
17.12.2017 20:00:00 -2,0 -9,9 23 12 36 19 ESE 20 0,0
17.12.2017 19:00:00 -1,4 -11,2 20 11 30 16 ESE 20 -
17.12.2017 18:00:00 -3,0 -12,8 13 7 22 12 SE 20 0,0
17.12.2017 17:00:00 -2,0 -13,3 16 8 23 12 E 20 0,0
17.12.2017 16:00:00 -2,3 -4,8 12 6 27 15 E 20 0,0
17.12.2017 15:00:00 -2,4 -5,4 19 10 32 17 ENE 20 0,0
17.12.2017 14:00:00 -1,8 -5,7 24 13 39 21 ENE 20 0,0
17.12.2017 13:00:00 -0,9 -10,3 23 12 39 21 E 20 -
17.12.2017 12:00:00 -1,4 -10,8 26 14 38 20 E 20 0,0
17.12.2017 11:00:00 -1,4 -10,8 19 11 28 15 E 20 0,2
17.12.2017 10:00:00 -2,3 -18,0 11 6 39 21 E 20 0,0
17.12.2017 09:00:00 -5,6 -9,0 27 14 42 23 E 20 0,0
17.12.2017 08:00:00 -5,7 -9,4 29 16 41 22 E 20 0,0
17.12.2017 07:00:00 -5,8 -9,4 23 13 33 18 E 20 -
17.12.2017 06:00:00 -5,2 -10,8 21 11 37 20 E 20 0,0
17.12.2017 05:00:00 -4,4 -11,2 23 13 42 23 ESE 20 0,0
17.12.2017 04:00:00 -5,0 -7,8 31 17 42 23 E 20 0,0
17.12.2017 03:00:00 -5,7 -7,1 32 17 41 22 ESE 20 0,0
17.12.2017 02:00:00 -5,1 -7,8 32 18 45 25 E 20 0,0
17.12.2017 01:00:00 -4,6 -7,8 32 17 45 24 E 20 -
17.12.2017 00:00:00 -4,5 -7,5 32 17 45 25 ESE 20 0,0
16.12.2017 23:00:00 -5,2 -5,4 30 16 41 22 E 17 0,0
16.12.2017 22:00:00 -5,1 -5,4 24 13 36 20 E 18 0,0
16.12.2017 21:00:00 -5,2 -5,4 24 13 41 22 E 20 0,0
16.12.2017 20:00:00 -5,8 -6,0 23 13 34 18 ESE 20 0,0
16.12.2017 19:00:00 -5,5 -5,7 27 15 37 20 E 2,3 -
16.12.2017 18:00:00 -5,8 -6,4 23 12 35 19 E 20 0,0
16.12.2017 17:00:00 -5,0 -6,4 26 14 40 21 E 20 0,0
16.12.2017 16:00:00 -3,5 -4,5 28 15 41 22 E 20 0,0
16.12.2017 15:00:00 -2,8 -4,2 27 15 38 21 E 20 0,0
16.12.2017 14:00:00 -3,0 -3,9 25 14 37 20 E 20 0,0
16.12.2017 13:00:00 -2,7 -3,9 23 12 40 22 E 20 -
16.12.2017 12:00:00 -3,2 -4,2 23 13 35 19 E 20 0,0
16.12.2017 11:00:00 -3,9 -4,5 22 12 36 19 E 20 0,0
16.12.2017 10:00:00 -5,2 -5,7 23 12 36 19 ESE 20 0,0
16.12.2017 09:00:00 -5,3 -5,7 22 12 31 17 ESE 20 0,0
16.12.2017 08:00:00 -5,5 -5,7 19 10 33 18 E 20 0,0
16.12.2017 07:00:00 -5,4 -5,7 22 12 29 16 ESE 20 -
16.12.2017 06:00:00 -5,3 -5,7 17 9 29 16 ESE 20 0,0
16.12.2017 05:00:00 -5,4 -5,7 19 10 27 14 E 20 0,0
16.12.2017 04:00:00 -5,3 -5,7 19 10 29 16 ESE 20 0,0
16.12.2017 03:00:00 -5,2 -5,4 18 10 31 17 E 20 0,0
16.12.2017 02:00:00 -5,5 -5,7 21 11 27 15 E 20 0,0
16.12.2017 01:00:00 -5,8 -6,0 19 10 31 17 E 20 -
16.12.2017 00:00:00 -5,9 -6,0 20 11 29 16 E 20 0,0
15.12.2017 23:00:00 -5,9 -6,0 21 11 33 18 E 20 0,0
15.12.2017 22:00:00 -4,1 -4,2 27 15 41 22 ENE 0,2 0,0
15.12.2017 21:00:00 -3,5 -3,6 28 15 46 25 ENE 0,2 0,0
15.12.2017 20:00:00 -3,0 -3,0 27 15 41 22 ENE 0,1 0,0
15.12.2017 19:00:00 -2,9 - 16 9 31 17 NE - -
15.12.2017 18:00:00 -2,8 - 17 9 36 19 N 0,1 0,0
15.12.2017 17:00:00 -2,0 - 19 10 40 21 WNW 0,2 0,0
15.12.2017 16:00:00 -1,4 - 19 10 49 26 W 0,2 0,0
15.12.2017 15:00:00 -0,6 - 26 14 51 27 W 0,1 0,0
15.12.2017 14:00:00 1,0 - 24 13 44 24 W 0,1 0,0
15.12.2017 13:00:00 0,4 - 21 11 48 26 W 0,1 -
15.12.2017 12:00:00 0,8 - 24 13 49 27 WNW 0,1 0,0
15.12.2017 11:00:00 2,5 - 31 17 60 32 W 0,3 0,0
15.12.2017 10:00:00 2,3 - 31 17 56 31 WSW 0,2 0,0
15.12.2017 09:00:00 2,0 - 26 14 53 29 WSW 0,3 0,0
15.12.2017 08:00:00 1,5 - 27 15 48 26 WSW 0,2 0,0
15.12.2017 07:00:00 1,2 - 23 12 45 24 W 0,2 -
15.12.2017 06:00:00 0,8 - 24 13 53 29 WSW 0,2 0,0
15.12.2017 05:00:00 0,0 - 27 14 49 26 WSW 0,2 0,0
15.12.2017 04:00:00 -0,1 - 24 13 46 25 W 0,2 0,0
15.12.2017 03:00:00 0,8 - 23 12 48 26 W 0,1 0,0
15.12.2017 02:00:00 1,1 - 27 15 53 29 W 1,0 0,0
15.12.2017 01:00:00 1,2 - 26 14 55 30 W 0,6 -
15.12.2017 00:00:00 1,8 - 29 16 57 31 WSW 0,9 0,0
14.12.2017 23:00:00 2,4 - 32 17 68 37 WSW 0,8 0,0
14.12.2017 22:00:00 3,1 - 37 20 69 37 WSW 1,0 0,0
14.12.2017 21:00:00 3,1 - 35 19 57 31 WSW 0,2 0,0
14.12.2017 20:00:00 2,9 - 34 18 54 29 WSW 0,1 0,0
14.12.2017 19:00:00 2,7 - 27 15 53 28 WSW 0,9 -
14.12.2017 18:00:00 3,1 - 25 13 53 28 WSW 0,9 0,0
14.12.2017 17:00:00 2,9 - 28 15 56 31 WSW 0,1 0,0
14.12.2017 16:00:00 3,2 - 32 17 63 34 WSW - 0,0
14.12.2017 15:00:00 3,2 - 31 17 61 33 WSW 0,1 0,0
14.12.2017 14:00:00 3,5 3,4 33 18 57 31 WSW 0,2 0,0
14.12.2017 13:00:00 3,6 3,6 36 19 59 32 WSW 0,2 -
14.12.2017 12:00:00 3,5 3,4 31 17 67 36 WSW 0,1 0,0
14.12.2017 11:00:00 3,4 3,4 33 18 56 30 WSW 0,2 0,0
14.12.2017 10:00:00 3,4 3,4 35 19 60 32 WSW 0,2 0,0
14.12.2017 09:00:00 3,1 - 38 21 63 34 WSW 0,9 0,0
14.12.2017 08:00:00 3,0 - 37 20 59 32 WSW 0,2 0,0
14.12.2017 07:00:00 3,2 - 29 16 50 27 WSW 0,5 -
14.12.2017 06:00:00 3,3 3,2 28 15 57 31 WSW 0,2 0,0
14.12.2017 05:00:00 3,3 3,2 34 19 59 32 WSW 0,3 0,0
14.12.2017 04:00:00 3,5 3,4 25 13 47 26 WSW 1,2 0,0
14.12.2017 03:00:00 3,3 3,2 28 15 46 25 WSW 0,9 0,0
14.12.2017 02:00:00 2,7 - 21 12 44 24 WSW 0,1 0,0
14.12.2017 01:00:00 2,7 2,7 23 12 35 19 WSW 0,2 -
14.12.2017 00:00:00 2,6 2,7 21 11 35 19 WSW 0,2 0,0
13.12.2017 23:00:00 2,8 2,9 20 11 39 21 WSW 0,2 0,0
13.12.2017 22:00:00 2,5 2,5 22 12 36 19 WSW 0,2 0,0
13.12.2017 21:00:00 2,6 2,7 22 12 43 23 WSW 0,3 0,0
13.12.2017 20:00:00 3,1 2,9 27 15 42 23 WSW 3,3 0,0
13.12.2017 19:00:00 2,1 -3,0 22 12 37 20 WSW 20 -
13.12.2017 18:00:00 2,3 -6,4 23 12 42 23 WSW 20 0,0
13.12.2017 17:00:00 2,3 -2,2 26 14 40 22 SW 20 0,0
13.12.2017 16:00:00 2,4 1,1 24 13 40 22 WSW 20 0,0
13.12.2017 15:00:00 3,3 2,5 27 14 43 23 WSW 20 0,0
13.12.2017 14:00:00 2,6 2,5 28 15 42 23 WSW 2,4 0,4
13.12.2017 13:00:00 2,8 2,5 29 16 42 23 WSW 1,0 -
13.12.2017 12:00:00 2,6 2,1 31 17 45 25 WSW 20 2,8
13.12.2017 11:00:00 1,8 1,9 21 11 35 19 WSW 19 1,2
13.12.2017 10:00:00 1,3 1,3 20 11 34 18 WSW 0,6 0,2
13.12.2017 09:00:00 0,7 - 25 13 46 25 WSW 20 0,0
13.12.2017 08:00:00 0,4 - 27 14 45 24 WSW 20 0,0
13.12.2017 07:00:00 -0,1 - 8 5 19 11 WSW 0,6 -
13.12.2017 06:00:00 -1,5 -1,4 11 6 23 12 W 0,6 0,0
13.12.2017 05:00:00 -1,4 -1,4 12 6 20 11 WSW 20 0,0
13.12.2017 04:00:00 -2,2 -2,2 11 6 20 11 W 20 0,0
13.12.2017 03:00:00 -3,2 -3,6 8 4 18 10 SW 20 0,0
13.12.2017 02:00:00 -4,7 -5,1 9 5 16 9 SW 20 0,0
13.12.2017 01:00:00 -4,7 -5,4 8 5 16 9 SSW 20 -
13.12.2017 00:00:00 -6,1 -7,1 11 6 17 9 S 20 0,0
12.12.2017 23:00:00 -5,6 -6,0 11 6 22 12 SSW 7 0,0
12.12.2017 22:00:00 -6,3 -6,7 6 3 12 7 SSW 20 0,0
12.12.2017 21:00:00 -6,9 -7,5 3 1 21 11 SSW 20 0,0
12.12.2017 20:00:00 -6,5 -7,1 5 3 10 5 E 20 0,0
12.12.2017 19:00:00 -6,9 -7,5 5 3 11 6 SSW 1,7 -
12.12.2017 18:00:00 -6,5 -6,7 6 4 11 6 S 20 0,0
12.12.2017 17:00:00 -4,6 -5,1 6 3 9 5 S 20 0,2
12.12.2017 16:00:00 -1,0 -1,2 4 2 11 6 WNW 20 2,6
12.12.2017 15:00:00 -0,4 -0,5 3 2 11 6 SSE 20 1,4
12.12.2017 14:00:00 -1,5 -1,7 6 3 13 7 N 20 3,2
12.12.2017 13:00:00 0,0 0,0 4 2 17 9 NNE 20 -

tt = Température de l'air
td = dewpoint
ff = Vitesse du vent
fx = gusts
dd = Direction du vent
vv = visibility
rr = Quantités de précipitations

stations d'obs. à proximité